sensor_id;sensor_type;location;lat;lon;timestamp;pressure;altitude;pressure_sealevel;temperature;humidity
80892;BME280;70343;51.530;5.050;2023-06-26T00:02:16;101214.00;;;25.64;49.67
80892;BME280;70343;51.530;5.050;2023-06-26T00:04:43;101215.06;;;25.63;49.42
80892;BME280;70343;51.530;5.050;2023-06-26T00:07:09;101221.84;;;25.50;50.17
80892;BME280;70343;51.530;5.050;2023-06-26T00:09:34;101223.44;;;25.51;49.90
80892;BME280;70343;51.530;5.050;2023-06-26T00:12:00;101218.47;;;25.35;49.79
80892;BME280;70343;51.530;5.050;2023-06-26T00:14:26;101226.72;;;25.38;49.58
80892;BME280;70343;51.530;5.050;2023-06-26T00:16:52;101226.47;;;25.40;50.42
80892;BME280;70343;51.530;5.050;2023-06-26T00:19:17;101217.91;;;25.38;50.41
80892;BME280;70343;51.530;5.050;2023-06-26T00:21:43;101222.19;;;25.34;50.79
80892;BME280;70343;51.530;5.050;2023-06-26T00:24:14;101222.19;;;25.34;50.49
80892;BME280;70343;51.530;5.050;2023-06-26T00:26:40;101221.25;;;25.15;51.08
80892;BME280;70343;51.530;5.050;2023-06-26T00:29:05;101222.88;;;25.11;51.15
80892;BME280;70343;51.530;5.050;2023-06-26T00:31:32;101227.16;;;25.07;51.91
80892;BME280;70343;51.530;5.050;2023-06-26T00:34:00;101227.22;;;24.97;51.44
80892;BME280;70343;51.530;5.050;2023-06-26T00:36:26;101230.19;;;24.85;51.57
80892;BME280;70343;51.530;5.050;2023-06-26T00:38:52;101228.28;;;24.96;50.76
80892;BME280;70343;51.530;5.050;2023-06-26T00:41:18;101220.84;;;24.88;51.81
80892;BME280;70343;51.530;5.050;2023-06-26T00:43:44;101218.50;;;24.76;51.45
80892;BME280;70343;51.530;5.050;2023-06-26T00:46:12;101217.69;;;24.76;51.66
80892;BME280;70343;51.530;5.050;2023-06-26T00:48:39;101226.25;;;24.73;51.55
80892;BME280;70343;51.530;5.050;2023-06-26T00:51:06;101232.72;;;24.46;53.33
80892;BME280;70343;51.530;5.050;2023-06-26T00:53:32;101231.13;;;24.35;52.34
80892;BME280;70343;51.530;5.050;2023-06-26T00:55:59;101225.25;;;24.43;53.04
80892;BME280;70343;51.530;5.050;2023-06-26T00:58:24;101233.00;;;24.40;53.37
80892;BME280;70343;51.530;5.050;2023-06-26T01:00:51;101242.31;;;24.42;52.60
80892;BME280;70343;51.530;5.050;2023-06-26T01:03:23;101231.13;;;24.40;52.93
80892;BME280;70343;51.530;5.050;2023-06-26T01:05:50;101227.16;;;24.38;51.86
80892;BME280;70343;51.530;5.050;2023-06-26T01:08:19;101240.75;;;24.31;52.95
80892;BME280;70343;51.530;5.050;2023-06-26T01:10:46;101238.09;;;24.21;53.71
80892;BME280;70343;51.530;5.050;2023-06-26T01:13:15;101244.75;;;24.19;53.56
80892;BME280;70343;51.530;5.050;2023-06-26T01:15:41;101240.72;;;24.01;53.63
80892;BME280;70343;51.530;5.050;2023-06-26T01:18:07;101252.19;;;24.02;53.06
80892;BME280;70343;51.530;5.050;2023-06-26T01:20:38;101260.47;;;23.90;53.70
80892;BME280;70343;51.530;5.050;2023-06-26T01:23:14;101253.00;;;23.82;53.13
80892;BME280;70343;51.530;5.050;2023-06-26T01:28:40;101254.63;;;23.93;53.21
80892;BME280;70343;51.530;5.050;2023-06-26T01:31:07;101254.06;;;23.76;53.62
80892;BME280;70343;51.530;5.050;2023-06-26T01:33:32;101265.25;;;23.73;54.19
80892;BME280;70343;51.530;5.050;2023-06-26T01:35:58;101262.31;;;23.74;53.87
80892;BME280;70343;51.530;5.050;2023-06-26T01:38:26;101267.91;;;23.68;54.32
80892;BME280;70343;51.530;5.050;2023-06-26T01:40:55;101263.63;;;23.72;53.66
80892;BME280;70343;51.530;5.050;2023-06-26T01:46:16;101270.56;;;23.78;54.05
80892;BME280;70343;51.530;5.050;2023-06-26T01:49:24;101264.47;;;23.77;54.31
80892;BME280;70343;51.530;5.050;2023-06-26T01:52:02;101272.44;;;23.67;55.18
80892;BME280;70343;51.530;5.050;2023-06-26T01:54:30;101268.97;;;23.52;54.85
80892;BME280;70343;51.530;5.050;2023-06-26T01:56:59;101264.69;;;23.46;54.91
80892;BME280;70343;51.530;5.050;2023-06-26T01:59:25;101272.41;;;23.47;55.25
80892;BME280;70343;51.530;5.050;2023-06-26T02:01:53;101262.00;;;23.41;55.39
80892;BME280;70343;51.530;5.050;2023-06-26T02:04:19;101261.47;;;23.39;55.00
80892;BME280;70343;51.530;5.050;2023-06-26T02:06:45;101268.88;;;23.27;55.02
80892;BME280;70343;51.530;5.050;2023-06-26T02:09:11;101268.34;;;23.25;55.82
80892;BME280;70343;51.530;5.050;2023-06-26T02:11:36;101269.97;;;23.36;53.75
80892;BME280;70343;51.530;5.050;2023-06-26T02:14:02;101268.88;;;23.27;54.56
80892;BME280;70343;51.530;5.050;2023-06-26T02:16:29;101264.59;;;23.26;54.02
80892;BME280;70343;51.530;5.050;2023-06-26T02:18:54;101272.63;;;23.36;53.24
80892;BME280;70343;51.530;5.050;2023-06-26T02:21:22;101269.38;;;23.19;54.20
80892;BME280;70343;51.530;5.050;2023-06-26T02:23:48;101274.06;;;23.01;54.65
80892;BME280;70343;51.530;5.050;2023-06-26T02:26:13;101281.50;;;22.94;54.54
80892;BME280;70343;51.530;5.050;2023-06-26T02:28:41;101282.03;;;22.91;54.95
80892;BME280;70343;51.530;5.050;2023-06-26T02:31:07;101281.72;;;22.83;55.44
80892;BME280;70343;51.530;5.050;2023-06-26T02:33:32;101292.63;;;22.86;55.13
80892;BME280;70343;51.530;5.050;2023-06-26T02:35:58;101287.59;;;22.90;55.12
80892;BME280;70343;51.530;5.050;2023-06-26T02:38:23;101293.72;;;22.85;54.92
80892;BME280;70343;51.530;5.050;2023-06-26T02:40:49;101297.94;;;22.86;55.13
80892;BME280;70343;51.530;5.050;2023-06-26T02:43:15;101295.28;;;22.81;55.33
80892;BME280;70343;51.530;5.050;2023-06-26T02:45:41;101300.19;;;22.58;56.19
80892;BME280;70343;51.530;5.050;2023-06-26T02:48:07;101309.81;;;22.69;55.25
80892;BME280;70343;51.530;5.050;2023-06-26T02:50:33;101307.00;;;22.85;55.36
80892;BME280;70343;51.530;5.050;2023-06-26T02:53:10;101311.97;;;22.72;55.60
80892;BME280;70343;51.530;5.050;2023-06-26T02:55:38;101323.66;;;22.71;56.21
80892;BME280;70343;51.530;5.050;2023-06-26T02:58:04;101318.22;;;22.56;56.58
80892;BME280;70343;51.530;5.050;2023-06-26T03:00:31;101320.66;;;22.57;56.46
80892;BME280;70343;51.530;5.050;2023-06-26T03:02:59;101315.34;;;22.57;57.04
80892;BME280;70343;51.530;5.050;2023-06-26T03:05:25;101325.22;;;22.67;57.14
80892;BME280;70343;51.530;5.050;2023-06-26T03:10:58;101324.75;;;22.43;58.56
80892;BME280;70343;51.530;5.050;2023-06-26T03:13:23;101315.63;;;22.61;58.07
80892;BME280;70343;51.530;5.050;2023-06-26T03:15:49;101328.34;;;22.59;57.51
80892;BME280;70343;51.530;5.050;2023-06-26T03:18:14;101329.59;;;22.51;58.98
80892;BME280;70343;51.530;5.050;2023-06-26T03:20:40;101328.69;;;22.67;58.05
80892;BME280;70343;51.530;5.050;2023-06-26T03:23:05;101325.38;;;22.50;59.12
80892;BME280;70343;51.530;5.050;2023-06-26T03:25:31;101320.03;;;22.50;59.25
80892;BME280;70343;51.530;5.050;2023-06-26T03:28:16;101324.00;;;22.48;59.17
80892;BME280;70343;51.530;5.050;2023-06-26T03:30:42;101326.31;;;22.34;60.92
80892;BME280;70343;51.530;5.050;2023-06-26T03:33:08;101318.88;;;22.36;59.55
80892;BME280;70343;51.530;5.050;2023-06-26T03:35:33;101322.06;;;22.33;59.68
80892;BME280;70343;51.530;5.050;2023-06-26T03:37:59;101315.31;;;22.21;61.52
80892;BME280;70343;51.530;5.050;2023-06-26T03:40:26;101327.31;;;22.28;61.28
80892;BME280;70343;51.530;5.050;2023-06-26T03:42:52;101330.50;;;22.25;60.69
80892;BME280;70343;51.530;5.050;2023-06-26T03:45:18;101328.56;;;22.16;61.36
80892;BME280;70343;51.530;5.050;2023-06-26T03:47:45;101338.84;;;22.39;60.82
80892;BME280;70343;51.530;5.050;2023-06-26T03:50:13;101347.19;;;22.21;61.52
80892;BME280;70343;51.530;5.050;2023-06-26T03:52:39;101339.56;;;22.29;61.36
80892;BME280;70343;51.530;5.050;2023-06-26T03:55:04;101349.28;;;22.19;62.45
80892;BME280;70343;51.530;5.050;2023-06-26T03:57:31;101347.56;;;22.34;62.16
80892;BME280;70343;51.530;5.050;2023-06-26T03:59:56;101341.69;;;22.32;61.72
80892;BME280;70343;51.530;5.050;2023-06-26T04:02:22;101351.66;;;22.15;63.01
80892;BME280;70343;51.530;5.050;2023-06-26T04:04:48;101352.19;;;22.17;62.37
80892;BME280;70343;51.530;5.050;2023-06-26T04:07:13;101357.50;;;22.17;63.16
80892;BME280;70343;51.530;5.050;2023-06-26T04:09:39;101367.47;;;22.00;63.62
80892;BME280;70343;51.530;5.050;2023-06-26T04:12:06;101366.09;;;21.97;63.83
80892;BME280;70343;51.530;5.050;2023-06-26T04:14:32;101372.22;;;21.98;64.33
80892;BME280;70343;51.530;5.050;2023-06-26T04:16:57;101371.72;;;22.06;63.72
80892;BME280;70343;51.530;5.050;2023-06-26T04:19:29;101367.19;;;22.01;63.57
80892;BME280;70343;51.530;5.050;2023-06-26T04:21:54;101362.16;;;21.78;65.11
80892;BME280;70343;51.530;5.050;2023-06-26T04:24:20;101364.69;;;21.90;64.04
80892;BME280;70343;51.530;5.050;2023-06-26T04:26:47;101377.59;;;22.08;63.78
80892;BME280;70343;51.530;5.050;2023-06-26T04:29:12;101377.16;;;22.16;63.10
80892;BME280;70343;51.530;5.050;2023-06-26T04:31:38;101383.84;;;21.92;64.73
80892;BME280;70343;51.530;5.050;2023-06-26T04:34:04;101383.94;;;22.02;63.93
80892;BME280;70343;51.530;5.050;2023-06-26T04:36:30;101386.09;;;22.05;63.47
80892;BME280;70343;51.530;5.050;2023-06-26T04:38:57;101389.25;;;22.02;64.21
80892;BME280;70343;51.530;5.050;2023-06-26T04:41:22;101394.19;;;22.20;63.27
80892;BME280;70343;51.530;5.050;2023-06-26T04:43:48;101386.38;;;22.08;63.74
80892;BME280;70343;51.530;5.050;2023-06-26T04:46:14;101404.44;;;22.33;62.84
80892;BME280;70343;51.530;5.050;2023-06-26T04:48:39;101411.72;;;22.48;62.68
80892;BME280;70343;51.530;5.050;2023-06-26T04:51:05;101402.56;;;22.34;62.94
80892;BME280;70343;51.530;5.050;2023-06-26T04:53:30;101402.72;;;22.22;63.55
80892;BME280;70343;51.530;5.050;2023-06-26T04:55:56;101413.03;;;21.92;63.99
80892;BME280;70343;51.530;5.050;2023-06-26T04:58:21;101415.16;;;21.90;64.13
80892;BME280;70343;51.530;5.050;2023-06-26T05:00:47;101418.81;;;22.10;63.12
80892;BME280;70343;51.530;5.050;2023-06-26T05:03:14;101423.31;;;22.10;63.16
80892;BME280;70343;51.530;5.050;2023-06-26T05:05:42;101427.13;;;22.19;62.66
80892;BME280;70343;51.530;5.050;2023-06-26T05:08:24;101428.47;;;22.22;62.60
80892;BME280;70343;51.530;5.050;2023-06-26T05:10:51;101429.13;;;22.34;61.53
80892;BME280;70343;51.530;5.050;2023-06-26T05:13:18;101438.41;;;22.04;62.16
80892;BME280;70343;51.530;5.050;2023-06-26T05:15:48;101429.50;;;22.16;62.16
80892;BME280;70343;51.530;5.050;2023-06-26T05:18:14;101434.00;;;22.15;61.60
80892;BME280;70343;51.530;5.050;2023-06-26T05:20:40;101428.28;;;22.01;61.84
80892;BME280;70343;51.530;5.050;2023-06-26T05:23:06;101426.06;;;22.20;61.19
80892;BME280;70343;51.530;5.050;2023-06-26T05:25:32;101433.13;;;22.36;60.15
80892;BME280;70343;51.530;5.050;2023-06-26T05:27:59;101434.38;;;23.85;57.08
80892;BME280;70343;51.530;5.050;2023-06-26T05:30:25;101445.91;;;25.57;51.99
80892;BME280;70343;51.530;5.050;2023-06-26T05:32:53;101459.41;;;26.29;48.06
80892;BME280;70343;51.530;5.050;2023-06-26T05:35:22;101452.44;;;25.85;48.43
80892;BME280;70343;51.530;5.050;2023-06-26T05:37:49;101446.28;;;25.00;52.15
80892;BME280;70343;51.530;5.050;2023-06-26T05:40:18;101458.72;;;24.04;52.84
80892;BME280;70343;51.530;5.050;2023-06-26T05:42:44;101460.25;;;23.85;53.23
80892;BME280;70343;51.530;5.050;2023-06-26T05:45:10;101473.66;;;24.10;52.57
80892;BME280;70343;51.530;5.050;2023-06-26T05:47:36;101474.88;;;25.89;48.96
80892;BME280;70343;51.530;5.050;2023-06-26T05:50:03;101481.66;;;26.97;45.72
80892;BME280;70343;51.530;5.050;2023-06-26T05:52:29;101472.66;;;27.41;44.44
80892;BME280;70343;51.530;5.050;2023-06-26T05:54:56;101477.59;;;28.37;42.07
80892;BME280;70343;51.530;5.050;2023-06-26T05:57:28;101480.34;;;28.32;41.85
80892;BME280;70343;51.530;5.050;2023-06-26T05:59:54;101485.03;;;28.77;41.51
80892;BME280;70343;51.530;5.050;2023-06-26T06:02:20;101486.03;;;29.13;39.63
80892;BME280;70343;51.530;5.050;2023-06-26T06:04:46;101485.97;;;28.99;39.86
80892;BME280;70343;51.530;5.050;2023-06-26T06:07:12;101492.34;;;29.90;38.45
80892;BME280;70343;51.530;5.050;2023-06-26T06:09:38;101501.59;;;29.57;38.24
80892;BME280;70343;51.530;5.050;2023-06-26T06:12:05;101499.13;;;30.10;37.65
80892;BME280;70343;51.530;5.050;2023-06-26T06:14:32;101512.94;;;30.44;36.92
80892;BME280;70343;51.530;5.050;2023-06-26T06:16:57;101507.34;;;29.23;38.86
80892;BME280;70343;51.530;5.050;2023-06-26T06:19:23;101498.50;;;29.50;37.59
80892;BME280;70343;51.530;5.050;2023-06-26T06:21:48;101502.16;;;30.44;37.17
80892;BME280;70343;51.530;5.050;2023-06-26T06:24:13;101500.44;;;30.48;35.63
80892;BME280;70343;51.530;5.050;2023-06-26T06:26:39;101507.06;;;30.42;35.63
80892;BME280;70343;51.530;5.050;2023-06-26T06:29:04;101509.44;;;30.43;34.71
80892;BME280;70343;51.530;5.050;2023-06-26T06:31:31;101519.13;;;30.89;35.32
80892;BME280;70343;51.530;5.050;2023-06-26T06:33:57;101534.94;;;29.97;37.31
80892;BME280;70343;51.530;5.050;2023-06-26T06:36:22;101539.25;;;30.69;35.77
80892;BME280;70343;51.530;5.050;2023-06-26T06:38:48;101534.53;;;29.35;36.87
80892;BME280;70343;51.530;5.050;2023-06-26T06:41:13;101540.03;;;29.84;36.24
80892;BME280;70343;51.530;5.050;2023-06-26T06:43:39;101544.63;;;30.69;35.68
80892;BME280;70343;51.530;5.050;2023-06-26T06:46:05;101562.66;;;31.04;35.00
80892;BME280;70343;51.530;5.050;2023-06-26T06:48:31;101559.53;;;28.85;39.46
80892;BME280;70343;51.530;5.050;2023-06-26T06:50:57;101565.13;;;27.85;40.45
80892;BME280;70343;51.530;5.050;2023-06-26T06:53:22;101572.81;;;28.76;37.44
80892;BME280;70343;51.530;5.050;2023-06-26T06:55:49;101579.78;;;27.12;40.83
80892;BME280;70343;51.530;5.050;2023-06-26T06:58:15;101586.78;;;26.05;43.55
80892;BME280;70343;51.530;5.050;2023-06-26T07:00:42;101591.69;;;25.78;44.43
80892;BME280;70343;51.530;5.050;2023-06-26T07:03:08;101585.53;;;25.78;44.89
80892;BME280;70343;51.530;5.050;2023-06-26T07:05:33;101573.66;;;26.73;42.13
80892;BME280;70343;51.530;5.050;2023-06-26T07:07:59;101585.19;;;28.91;37.91
80892;BME280;70343;51.530;5.050;2023-06-26T07:10:25;101604.25;;;29.27;35.71
80892;BME280;70343;51.530;5.050;2023-06-26T07:12:51;101595.66;;;28.13;38.46
80892;BME280;70343;51.530;5.050;2023-06-26T07:15:16;101589.78;;;28.90;37.62
80892;BME280;70343;51.530;5.050;2023-06-26T07:17:42;101588.44;;;29.25;35.85
80892;BME280;70343;51.530;5.050;2023-06-26T07:20:08;101597.59;;;29.83;34.75
80892;BME280;70343;51.530;5.050;2023-06-26T07:22:36;101602.34;;;30.14;34.75
80892;BME280;70343;51.530;5.050;2023-06-26T07:25:02;101609.34;;;30.42;34.16
80892;BME280;70343;51.530;5.050;2023-06-26T07:27:29;101610.09;;;30.56;33.91
80892;BME280;70343;51.530;5.050;2023-06-26T07:29:54;101615.91;;;30.36;32.89
80892;BME280;70343;51.530;5.050;2023-06-26T07:32:20;101622.19;;;27.91;37.03
80892;BME280;70343;51.530;5.050;2023-06-26T07:34:46;101619.63;;;27.52;38.59
80892;BME280;70343;51.530;5.050;2023-06-26T07:37:11;101626.59;;;27.53;38.21
80892;BME280;70343;51.530;5.050;2023-06-26T07:39:37;101628.72;;;27.17;39.10
80892;BME280;70343;51.530;5.050;2023-06-26T07:42:02;101635.13;;;27.21;40.15
80892;BME280;70343;51.530;5.050;2023-06-26T07:44:28;101630.38;;;28.47;37.63
80892;BME280;70343;51.530;5.050;2023-06-26T07:46:53;101643.59;;;28.20;37.09
80892;BME280;70343;51.530;5.050;2023-06-26T07:49:19;101644.25;;;27.83;37.07
80892;BME280;70343;51.530;5.050;2023-06-26T07:51:44;101640.06;;;28.24;37.38
80892;BME280;70343;51.530;5.050;2023-06-26T07:54:10;101637.84;;;28.50;37.67
80892;BME280;70343;51.530;5.050;2023-06-26T07:56:52;101642.84;;;27.28;38.76
80892;BME280;70343;51.530;5.050;2023-06-26T07:59:19;101643.19;;;27.55;38.56
80892;BME280;70343;51.530;5.050;2023-06-26T08:01:46;101654.22;;;27.77;37.82
80892;BME280;70343;51.530;5.050;2023-06-26T08:04:12;101655.75;;;27.21;40.11
80892;BME280;70343;51.530;5.050;2023-06-26T08:06:37;101649.28;;;27.27;40.09
80892;BME280;70343;51.530;5.050;2023-06-26T08:09:06;101642.00;;;26.99;40.56
80892;BME280;70343;51.530;5.050;2023-06-26T08:11:33;101644.78;;;26.84;39.76
80892;BME280;70343;51.530;5.050;2023-06-26T08:13:59;101658.13;;;26.89;40.75
80892;BME280;70343;51.530;5.050;2023-06-26T08:16:24;101666.34;;;27.02;40.29
80892;BME280;70343;51.530;5.050;2023-06-26T08:18:50;101653.19;;;27.06;39.50
80892;BME280;70343;51.530;5.050;2023-06-26T08:21:16;101655.16;;;27.29;39.53
80892;BME280;70343;51.530;5.050;2023-06-26T08:23:41;101649.50;;;26.97;39.63
80892;BME280;70343;51.530;5.050;2023-06-26T08:26:07;101654.75;;;27.12;38.50
80892;BME280;70343;51.530;5.050;2023-06-26T08:28:33;101643.56;;;27.05;38.69
80892;BME280;70343;51.530;5.050;2023-06-26T08:30:58;101656.03;;;26.81;39.56
80892;BME280;70343;51.530;5.050;2023-06-26T08:33:25;101654.81;;;27.07;38.80
80892;BME280;70343;51.530;5.050;2023-06-26T08:35:50;101663.47;;;27.27;38.94
80892;BME280;70343;51.530;5.050;2023-06-26T08:38:16;101657.31;;;26.93;39.36
80892;BME280;70343;51.530;5.050;2023-06-26T08:40:41;101669.97;;;26.78;39.48
80892;BME280;70343;51.530;5.050;2023-06-26T08:43:07;101675.84;;;26.75;39.59
80892;BME280;70343;51.530;5.050;2023-06-26T08:45:33;101672.31;;;26.89;38.91
80892;BME280;70343;51.530;5.050;2023-06-26T08:48:00;101680.69;;;26.68;40.01
80892;BME280;70343;51.530;5.050;2023-06-26T08:50:29;101686.22;;;26.91;38.83
80892;BME280;70343;51.530;5.050;2023-06-26T08:53:11;101678.00;;;26.73;38.39
80892;BME280;70343;51.530;5.050;2023-06-26T08:55:41;101677.78;;;26.59;39.19
80892;BME280;70343;51.530;5.050;2023-06-26T08:58:08;101681.50;;;26.63;38.90
80892;BME280;70343;51.530;5.050;2023-06-26T09:00:34;101689.97;;;26.21;40.04
80892;BME280;70343;51.530;5.050;2023-06-26T09:03:01;101686.00;;;25.94;40.71
80892;BME280;70343;51.530;5.050;2023-06-26T09:05:28;101690.81;;;25.46;41.19
80892;BME280;70343;51.530;5.050;2023-06-26T09:07:54;101697.19;;;26.01;42.03
80892;BME280;70343;51.530;5.050;2023-06-26T09:10:23;101687.84;;;25.98;39.38
80892;BME280;70343;51.530;5.050;2023-06-26T09:12:50;101683.59;;;25.62;39.39
80892;BME280;70343;51.530;5.050;2023-06-26T09:15:19;101690.50;;;25.23;40.29
80892;BME280;70343;51.530;5.050;2023-06-26T09:17:45;101682.50;;;25.83;39.49
80892;BME280;70343;51.530;5.050;2023-06-26T09:20:11;101688.91;;;25.22;40.86
80892;BME280;70343;51.530;5.050;2023-06-26T09:22:38;101689.19;;;25.86;38.78
80892;BME280;70343;51.530;5.050;2023-06-26T09:25:05;101695.91;;;25.78;38.94
80892;BME280;70343;51.530;5.050;2023-06-26T09:27:31;101702.81;;;25.94;39.14
80892;BME280;70343;51.530;5.050;2023-06-26T09:29:56;101710.53;;;26.26;36.90
80892;BME280;70343;51.530;5.050;2023-06-26T09:32:24;101714.47;;;26.54;35.81
80892;BME280;70343;51.530;5.050;2023-06-26T09:34:52;101720.44;;;26.05;37.00
80892;BME280;70343;51.530;5.050;2023-06-26T09:37:18;101722.88;;;25.62;38.45
80892;BME280;70343;51.530;5.050;2023-06-26T09:39:44;101727.66;;;25.49;38.17
80892;BME280;70343;51.530;5.050;2023-06-26T09:42:09;101734.81;;;25.29;36.91
80892;BME280;70343;51.530;5.050;2023-06-26T09:44:35;101731.69;;;25.82;37.11
80892;BME280;70343;51.530;5.050;2023-06-26T09:47:02;101732.47;;;26.03;37.58
80892;BME280;70343;51.530;5.050;2023-06-26T09:49:29;101721.00;;;26.12;36.85
80892;BME280;70343;51.530;5.050;2023-06-26T09:51:54;101736.50;;;25.70;38.33
80892;BME280;70343;51.530;5.050;2023-06-26T09:54:21;101726.59;;;25.40;36.85
80892;BME280;70343;51.530;5.050;2023-06-26T09:56:47;101729.84;;;25.73;35.94
80892;BME280;70343;51.530;5.050;2023-06-26T09:59:13;101742.09;;;25.64;35.92
80892;BME280;70343;51.530;5.050;2023-06-26T10:01:45;101758.94;;;25.69;35.48
80892;BME280;70343;51.530;5.050;2023-06-26T10:04:10;101749.31;;;25.93;34.93
80892;BME280;70343;51.530;5.050;2023-06-26T10:06:41;101753.34;;;25.76;34.70
80892;BME280;70343;51.530;5.050;2023-06-26T10:09:06;101762.69;;;25.58;34.85
80892;BME280;70343;51.530;5.050;2023-06-26T10:14:21;101767.50;;;26.21;35.05
80892;BME280;70343;51.530;5.050;2023-06-26T10:16:49;101752.78;;;25.89;34.58
80892;BME280;70343;51.530;5.050;2023-06-26T10:19:18;101760.75;;;26.54;34.08
80892;BME280;70343;51.530;5.050;2023-06-26T10:21:46;101758.09;;;26.34;33.94
80892;BME280;70343;51.530;5.050;2023-06-26T10:24:12;101757.84;;;26.35;34.55
80892;BME280;70343;51.530;5.050;2023-06-26T10:26:44;101773.84;;;26.56;35.61
80892;BME280;70343;51.530;5.050;2023-06-26T10:29:13;101775.53;;;26.06;35.67
80892;BME280;70343;51.530;5.050;2023-06-26T10:31:43;101773.28;;;26.74;35.37
80892;BME280;70343;51.530;5.050;2023-06-26T10:34:11;101776.69;;;26.84;33.97
80892;BME280;70343;51.530;5.050;2023-06-26T10:36:37;101776.78;;;26.49;33.33
80892;BME280;70343;51.530;5.050;2023-06-26T10:39:06;101787.91;;;27.01;33.02
80892;BME280;70343;51.530;5.050;2023-06-26T10:41:39;101785.94;;;27.17;31.72
80892;BME280;70343;51.530;5.050;2023-06-26T10:46:54;101762.88;;;26.47;34.05
80892;BME280;70343;51.530;5.050;2023-06-26T10:49:25;101765.22;;;26.84;34.10
80892;BME280;70343;51.530;5.050;2023-06-26T10:51:51;101762.19;;;27.00;34.25
80892;BME280;70343;51.530;5.050;2023-06-26T10:54:18;101781.69;;;27.11;34.31
80892;BME280;70343;51.530;5.050;2023-06-26T10:56:54;101785.50;;;26.90;33.42
80892;BME280;70343;51.530;5.050;2023-06-26T10:59:24;101794.81;;;27.07;34.33
80892;BME280;70343;51.530;5.050;2023-06-26T11:02:04;101786.06;;;26.87;33.36
80892;BME280;70343;51.530;5.050;2023-06-26T11:04:47;101777.06;;;27.21;33.48
80892;BME280;70343;51.530;5.050;2023-06-26T11:07:20;101793.53;;;26.95;33.70
80892;BME280;70343;51.530;5.050;2023-06-26T11:09:59;101798.94;;;26.85;32.18
80892;BME280;70343;51.530;5.050;2023-06-26T11:12:41;101785.94;;;27.17;33.01
80892;BME280;70343;51.530;5.050;2023-06-26T11:15:12;101781.38;;;27.17;32.20
80892;BME280;70343;51.530;5.050;2023-06-26T11:17:39;101794.63;;;27.48;33.51
80892;BME280;70343;51.530;5.050;2023-06-26T11:20:15;101801.28;;;27.01;33.09
80892;BME280;70343;51.530;5.050;2023-06-26T11:22:42;101810.09;;;27.07;30.39
80892;BME280;70343;51.530;5.050;2023-06-26T11:25:09;101815.41;;;27.17;31.09
80892;BME280;70343;51.530;5.050;2023-06-26T11:30:08;101814.25;;;27.33;32.67
80892;BME280;70343;51.530;5.050;2023-06-26T11:32:35;101813.69;;;27.41;32.75
80892;BME280;70343;51.530;5.050;2023-06-26T11:35:01;101811.22;;;27.50;33.16
80892;BME280;70343;51.530;5.050;2023-06-26T11:37:27;101823.41;;;27.22;32.71
80892;BME280;70343;51.530;5.050;2023-06-26T11:39:52;101832.34;;;26.92;32.63
80892;BME280;70343;51.530;5.050;2023-06-26T11:42:20;101827.25;;;27.60;32.80
80892;BME280;70343;51.530;5.050;2023-06-26T11:44:46;101847.56;;;27.66;32.63
80892;BME280;70343;51.530;5.050;2023-06-26T11:47:17;101844.63;;;27.62;32.51
80892;BME280;70343;51.530;5.050;2023-06-26T11:49:46;101847.41;;;27.47;34.16
80892;BME280;70343;51.530;5.050;2023-06-26T11:52:13;101845.91;;;27.70;34.25
80892;BME280;70343;51.530;5.050;2023-06-26T11:54:39;101843.66;;;27.87;34.26
80892;BME280;70343;51.530;5.050;2023-06-26T11:57:05;101848.09;;;27.09;35.44
80892;BME280;70343;51.530;5.050;2023-06-26T11:59:38;101854.34;;;26.69;36.30
80892;BME280;70343;51.530;5.050;2023-06-26T12:02:14;101863.31;;;27.18;36.31
80892;BME280;70343;51.530;5.050;2023-06-26T12:04:41;101868.25;;;27.55;35.49
80892;BME280;70343;51.530;5.050;2023-06-26T12:07:08;101858.69;;;27.39;34.25
80892;BME280;70343;51.530;5.050;2023-06-26T12:09:40;101863.13;;;27.05;33.84
80892;BME280;70343;51.530;5.050;2023-06-26T12:12:06;101862.59;;;27.03;35.09
80892;BME280;70343;51.530;5.050;2023-06-26T12:14:33;101860.44;;;27.64;33.71
80892;BME280;70343;51.530;5.050;2023-06-26T12:17:12;101862.44;;;27.82;32.56
80892;BME280;70343;51.530;5.050;2023-06-26T12:19:43;101870.16;;;27.93;32.06
80892;BME280;70343;51.530;5.050;2023-06-26T12:22:09;101871.78;;;27.94;32.06
80892;BME280;70343;51.530;5.050;2023-06-26T12:24:39;101860.06;;;27.80;30.87
80892;BME280;70343;51.530;5.050;2023-06-26T12:27:09;101862.81;;;27.70;32.86
80892;BME280;70343;51.530;5.050;2023-06-26T12:29:35;101856.53;;;27.41;32.72
80892;BME280;70343;51.530;5.050;2023-06-26T12:32:01;101864.66;;;27.70;31.86
80892;BME280;70343;51.530;5.050;2023-06-26T12:34:35;101865.31;;;28.00;32.47
80892;BME280;70343;51.530;5.050;2023-06-26T12:37:11;101860.88;;;27.81;32.19
80892;BME280;70343;51.530;5.050;2023-06-26T12:39:47;101871.78;;;27.94;32.19
80892;BME280;70343;51.530;5.050;2023-06-26T12:42:33;101869.47;;;28.16;31.69
80892;BME280;70343;51.530;5.050;2023-06-26T12:44:58;101870.09;;;28.37;30.86
80892;BME280;70343;51.530;5.050;2023-06-26T12:47:26;101880.41;;;28.54;31.33
80892;BME280;70343;51.530;5.050;2023-06-26T12:49:53;101877.72;;;28.59;30.72
80892;BME280;70343;51.530;5.050;2023-06-26T12:52:19;101876.06;;;27.95;31.33
80892;BME280;70343;51.530;5.050;2023-06-26T12:54:45;101882.44;;;28.04;31.65
80892;BME280;70343;51.530;5.050;2023-06-26T12:57:12;101873.84;;;28.36;31.19
80892;BME280;70343;51.530;5.050;2023-06-26T12:59:39;101861.59;;;28.59;30.76
80892;BME280;70343;51.530;5.050;2023-06-26T13:02:06;101873.88;;;29.17;32.24
80892;BME280;70343;51.530;5.050;2023-06-26T13:04:33;101871.56;;;28.82;31.05
80892;BME280;70343;51.530;5.050;2023-06-26T13:06:58;101871.09;;;28.75;30.46
80892;BME280;70343;51.530;5.050;2023-06-26T13:09:25;101860.41;;;28.70;30.94